createdAt,value
2019-04-04T00:00:58.062Z,51.09
2019-04-04T00:03:28.906Z,51.37
2019-04-04T00:05:58.910Z,51.29
2019-04-04T00:08:30.872Z,51.13
2019-04-04T00:11:00.195Z,51.37
2019-04-04T00:13:29.955Z,51.93
2019-04-04T00:15:59.400Z,52.21
2019-04-04T00:18:29.290Z,52.40
2019-04-04T00:20:58.917Z,52.14
2019-04-04T00:23:28.712Z,52.43
2019-04-04T00:25:58.174Z,52.23
2019-04-04T00:28:27.701Z,52.36
2019-04-04T00:30:57.248Z,52.57
2019-04-04T00:33:27.045Z,52.75
2019-04-04T00:35:56.488Z,52.57
2019-04-04T00:38:25.997Z,52.83
2019-04-04T00:40:55.957Z,53.03
2019-04-04T00:43:25.855Z,53.29
2019-04-04T00:45:55.478Z,53.66
2019-04-04T00:48:25.394Z,53.92
2019-04-04T00:50:54.944Z,54.22
2019-04-04T00:53:24.613Z,54.89
2019-04-04T00:55:54.513Z,54.95
2019-04-04T00:58:24.007Z,55.31
2019-04-04T01:00:54.864Z,55.06
2019-04-04T01:03:24.980Z,55.37
2019-04-04T01:05:54.883Z,55.31
2019-04-04T01:08:24.497Z,55.34
2019-04-04T01:10:54.302Z,55.65
2019-04-04T01:13:27.261Z,56.08
2019-04-04T01:15:55.883Z,56.52
2019-04-04T01:18:25.672Z,56.88
2019-04-04T01:20:55.396Z,57.19
2019-04-04T01:23:27.186Z,57.35
2019-04-04T01:25:56.690Z,57.40
2019-04-04T01:28:26.246Z,57.45
2019-04-04T01:30:55.781Z,57.80
2019-04-04T01:33:25.556Z,57.67
2019-04-04T01:35:55.108Z,57.56
2019-04-04T01:38:24.798Z,56.97
2019-04-04T01:40:55.157Z,57.07
2019-04-04T01:43:25.058Z,57.07
2019-04-04T01:45:54.763Z,57.35
2019-04-04T01:48:24.589Z,57.03
2019-04-04T01:50:54.363Z,56.99
2019-04-04T01:53:24.033Z,56.96
2019-04-04T01:55:53.587Z,57.13
2019-04-04T01:58:23.030Z,57.21
2019-04-04T02:00:52.885Z,56.95
2019-04-04T02:03:23.282Z,57.17
2019-04-04T02:05:52.715Z,57.03
2019-04-04T02:08:22.206Z,57.00
2019-04-04T02:10:51.850Z,57.08
2019-04-04T02:13:21.581Z,56.88
2019-04-04T02:15:51.063Z,57.11
2019-04-04T02:18:23.304Z,57.15
2019-04-04T02:20:51.685Z,57.16
2019-04-04T02:23:21.362Z,57.08
2019-04-04T02:25:51.102Z,56.89
2019-04-04T02:28:20.841Z,57.40
2019-04-04T02:30:50.271Z,57.60
2019-04-04T02:33:19.769Z,58.08
2019-04-04T02:35:49.272Z,57.86
2019-04-04T02:38:18.960Z,57.61
2019-04-04T02:40:48.333Z,57.61
2019-04-04T02:43:18.049Z,57.76
2019-04-04T02:45:47.531Z,58.01
2019-04-04T02:48:17.005Z,58.07
2019-04-04T02:50:46.447Z,58.12
2019-04-04T02:53:19.441Z,58.32
2019-04-04T02:55:47.236Z,58.03
2019-04-04T02:58:16.860Z,58.46
2019-04-04T03:00:47.756Z,58.53
2019-04-04T03:03:17.277Z,58.75
2019-04-04T03:05:50.755Z,58.65
2019-04-04T03:08:18.427Z,58.78
2019-04-04T03:10:49.390Z,59.03
2019-04-04T03:13:19.122Z,59.53
2019-04-04T03:15:48.805Z,59.47
2019-04-04T03:18:18.528Z,59.94
2019-04-04T03:20:50.395Z,60.30
2019-04-04T03:23:19.492Z,60.51
2019-04-04T03:25:49.204Z,60.35
2019-04-04T03:28:18.905Z,60.54
2019-04-04T03:30:58.083Z,61.00
2019-04-04T03:33:19.878Z,61.21
2019-04-04T03:35:49.336Z,61.29
2019-04-04T03:38:18.958Z,61.41
2019-04-04T03:40:48.348Z,61.85
2019-04-04T03:43:17.786Z,62.14
2019-04-04T03:45:47.408Z,62.40
2019-04-04T03:48:18.588Z,62.10
2019-04-04T03:50:48.523Z,61.91
2019-04-04T03:53:19.863Z,61.47
2019-04-04T03:55:49.547Z,61.41
2019-04-04T03:58:19.384Z,62.01
2019-04-04T04:00:48.918Z,61.93
2019-04-04T04:03:22.231Z,61.84
2019-04-04T04:05:50.159Z,62.03
2019-04-04T04:08:21.949Z,62.23
2019-04-04T04:10:51.100Z,62.48
2019-04-04T04:13:20.939Z,62.59
2019-04-04T04:15:50.641Z,62.70
2019-04-04T04:18:21.560Z,62.80
2019-04-04T04:20:51.467Z,63.03
2019-04-04T04:23:23.949Z,63.34
2019-04-04T04:25:53.000Z,62.97
2019-04-04T04:28:22.644Z,62.68
2019-04-04T04:30:52.045Z,62.89
2019-04-04T04:33:21.782Z,63.27
2019-04-04T04:35:51.554Z,63.51
2019-04-04T04:38:25.592Z,63.44
2019-04-04T04:40:52.230Z,63.25
2019-04-04T04:43:21.994Z,62.90
2019-04-04T04:45:51.774Z,62.63
2019-04-04T04:48:21.344Z,62.75
2019-04-04T04:50:50.792Z,62.92
2019-04-04T04:53:20.558Z,62.86
2019-04-04T04:55:49.949Z,62.49
2019-04-04T04:58:19.672Z,62.21
2019-04-04T05:00:49.415Z,62.11
2019-04-04T05:03:18.968Z,62.58
2019-04-04T05:05:48.695Z,62.64
2019-04-04T05:08:18.136Z,61.35
2019-04-04T05:10:47.759Z,61.39
2019-04-04T05:13:17.200Z,60.71
2019-04-04T05:15:46.955Z,60.88
2019-04-04T05:18:17.083Z,60.52
2019-04-04T05:20:46.601Z,60.94
2019-04-04T05:23:16.394Z,60.29
2019-04-04T05:25:53.686Z,59.85
2019-04-04T05:28:17.384Z,59.61
2019-04-04T05:30:47.839Z,58.69
2019-04-04T05:33:17.354Z,58.42
2019-04-04T05:35:47.059Z,58.00
2019-04-04T05:38:16.752Z,57.58
2019-04-04T05:40:46.494Z,56.91
2019-04-04T05:43:15.922Z,56.09
2019-04-04T05:45:45.989Z,55.41
2019-04-04T05:48:15.794Z,55.08
2019-04-04T05:50:45.335Z,54.38
2019-04-04T05:53:14.873Z,53.69
2019-04-04T05:55:44.733Z,52.92
2019-04-04T05:58:14.430Z,52.31
2019-04-04T06:00:46.136Z,52.24
2019-04-04T06:03:15.944Z,52.08
2019-04-04T06:05:45.841Z,52.09
2019-04-04T06:08:15.424Z,52.27
2019-04-04T06:10:45.031Z,53.01
2019-04-04T06:13:14.776Z,53.13
2019-04-04T06:15:44.333Z,53.40
2019-04-04T06:18:13.957Z,53.97
2019-04-04T06:20:43.721Z,53.97
2019-04-04T06:23:13.460Z,53.42
2019-04-04T06:25:43.347Z,53.21
2019-04-04T06:28:13.158Z,52.88
2019-04-04T06:30:43.890Z,53.58
2019-04-04T06:33:13.737Z,53.32
2019-04-04T06:35:43.137Z,52.80
2019-04-04T06:38:12.709Z,51.98
2019-04-04T06:40:42.661Z,51.62
2019-04-04T06:43:12.767Z,50.95
2019-04-04T06:45:42.370Z,50.23
2019-04-04T06:48:12.246Z,49.73
2019-04-04T06:50:43.147Z,50.06
2019-04-04T06:53:13.800Z,49.65
2019-04-04T06:55:43.484Z,50.41
2019-04-04T06:58:13.044Z,50.72
2019-04-04T07:00:42.881Z,50.45
2019-04-04T07:03:12.609Z,49.64
2019-04-04T07:05:42.141Z,49.59
2019-04-04T07:08:14.832Z,49.18
2019-04-04T07:10:43.461Z,49.22
2019-04-04T07:13:21.566Z,48.76
2019-04-04T07:15:48.336Z,48.23
2019-04-04T07:18:15.881Z,47.93
2019-04-04T07:20:48.250Z,48.02
2019-04-04T07:23:17.947Z,48.78
2019-04-04T07:25:47.429Z,48.58
2019-04-04T07:28:18.990Z,47.50
2019-04-04T07:30:48.586Z,47.18
2019-04-04T07:33:21.139Z,47.57
2019-04-04T07:35:49.701Z,47.77
2019-04-04T07:38:19.439Z,47.16
2019-04-04T07:40:49.208Z,46.74
2019-04-04T07:43:19.272Z,47.26
2019-04-04T07:45:49.677Z,47.61
2019-04-04T07:48:19.749Z,46.27
2019-04-04T07:50:51.439Z,44.96
2019-04-04T07:53:20.938Z,43.22
2019-04-04T07:55:50.510Z,40.84
2019-04-04T07:58:20.008Z,38.11
2019-04-04T08:00:49.843Z,35.34
2019-04-04T08:03:19.480Z,33.45
2019-04-04T08:05:48.875Z,31.72
2019-04-04T08:08:18.562Z,29.68
2019-04-04T08:10:48.258Z,27.15
2019-04-04T08:13:18.412Z,25.80
2019-04-04T08:15:47.913Z,23.25
2019-04-04T08:18:17.626Z,21.86
2019-04-04T08:20:47.236Z,23.47
2019-04-04T08:23:17.069Z,22.60
2019-04-04T08:25:46.833Z,21.22
2019-04-04T08:28:16.432Z,20.99
2019-04-04T08:30:46.029Z,19.55
2019-04-04T08:33:15.719Z,19.62
2019-04-04T08:35:45.206Z,19.34
2019-04-04T08:38:14.787Z,17.92
2019-04-04T08:40:46.204Z,17.53
2019-04-04T08:43:15.720Z,16.89
2019-04-04T08:45:45.440Z,16.67
2019-04-04T08:48:15.018Z,15.17
2019-04-04T08:50:44.516Z,15.46
2019-04-04T08:53:14.126Z,15.37
2019-04-04T08:55:43.554Z,14.62
2019-04-04T08:58:13.261Z,13.89
2019-04-04T09:00:43.120Z,14.03
2019-04-04T09:03:12.772Z,12.77
2019-04-04T09:05:42.371Z,13.64
2019-04-04T09:08:12.156Z,13.49
2019-04-04T09:10:42.008Z,12.86
2019-04-04T09:13:11.640Z,13.05
2019-04-04T09:15:41.347Z,12.76
2019-04-04T09:18:10.853Z,12.59
2019-04-04T09:20:40.647Z,12.67
2019-04-04T09:23:10.214Z,12.77
2019-04-04T09:25:40.993Z,12.62
2019-04-04T09:28:10.708Z,13.45
2019-04-04T09:30:40.477Z,13.18
2019-04-04T09:33:10.066Z,12.81
2019-04-04T09:35:40.044Z,13.80
2019-04-04T09:38:09.941Z,13.35
2019-04-04T09:40:39.483Z,12.81
2019-04-04T09:43:09.037Z,12.29
2019-04-04T09:45:38.729Z,14.15
2019-04-04T09:48:08.304Z,12.92
2019-04-04T09:50:38.069Z,13.24
2019-04-04T09:53:07.603Z,12.70
2019-04-04T09:55:37.259Z,11.97
2019-04-04T09:58:06.756Z,11.80
2019-04-04T10:00:36.712Z,11.58
2019-04-04T10:03:06.092Z,11.43
2019-04-04T10:05:36.158Z,11.06
2019-04-04T10:08:05.647Z,10.99
2019-04-04T10:10:35.079Z,10.47
2019-04-04T10:13:04.960Z,10.46
2019-04-04T10:15:34.784Z,10.05
2019-04-04T10:18:04.141Z,10.50
2019-04-04T10:20:33.841Z,10.45
2019-04-04T10:23:03.729Z,10.21
2019-04-04T10:25:33.248Z,10.15
2019-04-04T10:28:02.868Z,10.33
2019-04-04T10:30:32.570Z,9.98
2019-04-04T10:33:02.273Z,9.94
2019-04-04T10:35:32.112Z,9.90
2019-04-04T10:38:01.497Z,9.73
2019-04-04T10:40:30.985Z,9.83
2019-04-04T10:43:00.465Z,9.68
2019-04-04T10:45:29.951Z,9.50
2019-04-04T10:47:59.393Z,9.34
2019-04-04T10:50:29.300Z,10.58
2019-04-04T10:52:58.690Z,10.71
2019-04-04T10:55:28.399Z,10.99
2019-04-04T10:57:57.888Z,10.88
2019-04-04T11:00:27.484Z,10.58
2019-04-04T11:02:57.154Z,10.98
2019-04-04T11:05:26.653Z,10.15
2019-04-04T11:07:56.881Z,9.85
2019-04-04T11:10:26.608Z,9.90
2019-04-04T11:12:56.035Z,9.67
2019-04-04T11:15:25.434Z,9.36
2019-04-04T11:17:54.948Z,9.90
2019-04-04T11:20:24.894Z,10.17
2019-04-04T11:22:54.415Z,10.09
2019-04-04T11:25:24.235Z,10.16
2019-04-04T11:27:53.979Z,9.78
2019-04-04T11:30:23.405Z,9.90
2019-04-04T11:32:52.893Z,11.01
2019-04-04T11:35:22.377Z,10.48
2019-04-04T11:37:51.857Z,10.36
2019-04-04T11:40:21.563Z,10.21
2019-04-04T11:42:51.244Z,10.17
2019-04-04T11:45:20.832Z,11.11
2019-04-04T11:47:50.263Z,11.38
2019-04-04T11:50:19.983Z,12.38
2019-04-04T11:52:49.867Z,13.78
2019-04-04T11:55:19.360Z,13.94
2019-04-04T11:57:49.015Z,13.27
2019-04-04T12:00:24.990Z,13.17
2019-04-04T12:02:54.467Z,12.50
2019-04-04T12:05:24.004Z,12.30
2019-04-04T12:07:53.582Z,12.19
2019-04-04T12:10:23.215Z,13.68
2019-04-04T12:12:52.677Z,14.40
2019-04-04T12:15:22.298Z,15.41
2019-04-04T12:17:51.827Z,14.68
2019-04-04T12:20:21.621Z,14.07
2019-04-04T12:22:51.024Z,14.13
2019-04-04T12:25:20.598Z,13.86
2019-04-04T12:27:50.203Z,14.37
2019-04-04T12:30:20.835Z,15.07
2019-04-04T12:32:50.349Z,16.07
2019-04-04T12:35:19.741Z,15.61
2019-04-04T12:37:49.226Z,14.96
2019-04-04T12:40:20.906Z,15.25
2019-04-04T12:42:50.507Z,14.56
2019-04-04T12:45:20.031Z,15.57
2019-04-04T12:47:49.866Z,15.63
2019-04-04T12:50:19.635Z,15.02
2019-04-04T12:52:49.509Z,16.24
2019-04-04T12:55:19.349Z,16.74
2019-04-04T12:57:49.101Z,16.71
2019-04-04T13:00:19.014Z,17.28
2019-04-04T13:02:48.541Z,17.65
2019-04-04T13:05:18.044Z,17.65
2019-04-04T13:07:47.440Z,18.46
2019-04-04T13:10:17.079Z,19.12
2019-04-04T13:12:46.953Z,19.68
2019-04-04T13:15:18.136Z,19.21
2019-04-04T13:17:47.833Z,18.83
2019-04-04T13:20:17.622Z,18.32
2019-04-04T13:22:47.479Z,19.02
2019-04-04T13:25:17.064Z,18.84
2019-04-04T13:27:46.532Z,17.85
2019-04-04T13:30:16.478Z,18.49
2019-04-04T13:32:46.166Z,18.49
2019-04-04T13:35:15.757Z,18.74
2019-04-04T13:37:45.410Z,18.93
2019-04-04T13:40:15.023Z,19.22
2019-04-04T13:42:44.624Z,20.20
2019-04-04T13:45:15.102Z,21.94
2019-04-04T13:47:44.827Z,23.33
2019-04-04T13:50:14.921Z,23.60
2019-04-04T13:52:44.440Z,24.44
2019-04-04T13:55:14.048Z,24.81
2019-04-04T13:57:45.382Z,24.82
2019-04-04T14:00:15.678Z,25.49
2019-04-04T14:02:45.215Z,26.35
2019-04-04T14:05:15.126Z,26.89
2019-04-04T14:07:44.614Z,27.65
2019-04-04T14:10:16.902Z,27.81
2019-04-04T14:12:46.179Z,27.81
2019-04-04T14:15:16.204Z,28.41
2019-04-04T14:17:45.865Z,28.75
2019-04-04T14:20:16.478Z,28.79
2019-04-04T14:22:47.715Z,28.85
2019-04-04T14:25:17.327Z,28.97
2019-04-04T14:27:46.709Z,29.66
2019-04-04T14:30:16.834Z,29.74
2019-04-04T14:32:46.310Z,30.23
2019-04-04T14:35:16.218Z,30.37
2019-04-04T14:37:45.615Z,29.92
2019-04-04T14:40:15.358Z,30.20
2019-04-04T14:42:45.093Z,30.59
2019-04-04T14:45:15.045Z,31.20
2019-04-04T14:47:44.696Z,31.67
2019-04-04T14:50:14.702Z,31.78
2019-04-04T14:52:44.489Z,31.83
2019-04-04T14:55:14.162Z,31.89
2019-04-04T14:57:43.753Z,32.14
2019-04-04T15:00:15.869Z,32.20
2019-04-04T15:02:45.717Z,31.92
2019-04-04T15:05:15.420Z,32.10
2019-04-04T15:07:45.130Z,32.44
2019-04-04T15:10:15.071Z,32.37
2019-04-04T15:12:44.923Z,32.77
2019-04-04T15:15:14.884Z,32.91
2019-04-04T15:17:44.476Z,33.02
2019-04-04T15:20:13.995Z,33.18
2019-04-04T15:22:43.498Z,33.58
2019-04-04T15:25:13.331Z,33.93
2019-04-04T15:27:42.967Z,34.04
2019-04-04T15:30:12.848Z,34.43
2019-04-04T15:32:42.290Z,34.71
2019-04-04T15:35:12.139Z,34.57
2019-04-04T15:37:41.907Z,34.81
2019-04-04T15:40:12.081Z,34.99
2019-04-04T15:42:41.667Z,35.22
2019-04-04T15:45:11.741Z,35.18
2019-04-04T15:47:41.515Z,35.19
2019-04-04T15:50:11.353Z,35.31
2019-04-04T15:52:41.107Z,34.92
2019-04-04T15:55:11.220Z,35.08
2019-04-04T15:57:41.029Z,35.50
2019-04-04T16:00:11.033Z,35.14
2019-04-04T16:02:40.591Z,35.27
2019-04-04T16:05:10.689Z,36.64
2019-04-04T16:07:40.413Z,35.93
2019-04-04T16:10:10.622Z,36.09
2019-04-04T16:12:40.106Z,35.73
2019-04-04T16:15:09.698Z,35.68
2019-04-04T16:17:39.079Z,35.80
2019-04-04T16:20:09.284Z,35.77
2019-04-04T16:22:39.041Z,36.27
2019-04-04T16:25:09.118Z,36.21
2019-04-04T16:27:38.803Z,36.53
2019-04-04T16:30:09.292Z,36.48
2019-04-04T16:32:39.105Z,36.46
2019-04-04T16:35:08.798Z,37.09
2019-04-04T16:37:38.182Z,37.01
2019-04-04T16:40:09.712Z,37.27
2019-04-04T16:42:39.766Z,37.85
2019-04-04T16:45:09.579Z,37.45
2019-04-04T16:47:39.206Z,37.74
2019-04-04T16:50:08.911Z,37.65
2019-04-04T16:52:38.310Z,38.11
2019-04-04T16:55:08.582Z,38.10
2019-04-04T16:57:38.166Z,37.71
2019-04-04T17:00:08.424Z,38.22
2019-04-04T17:02:37.963Z,38.68
2019-04-04T17:05:10.656Z,38.81
2019-04-04T17:07:39.228Z,38.88
2019-04-04T17:10:10.449Z,39.41
2019-04-04T17:12:39.906Z,38.68
2019-04-04T17:15:09.816Z,39.39
2019-04-04T17:17:39.334Z,40.58
2019-04-04T17:20:10.275Z,40.30
2019-04-04T17:22:39.883Z,40.99
2019-04-04T17:25:09.481Z,41.05
2019-04-04T17:27:39.224Z,40.98
2019-04-04T17:30:15.417Z,41.07
2019-04-04T17:32:47.937Z,41.44
2019-04-04T17:35:16.748Z,41.28
2019-04-04T17:37:46.886Z,41.69
2019-04-04T17:40:16.845Z,41.73
2019-04-04T17:42:46.399Z,41.92
2019-04-04T17:45:18.479Z,41.93
2019-04-04T17:47:48.789Z,42.19
2019-04-04T17:50:19.444Z,42.38
2019-04-04T17:52:49.553Z,42.60
2019-04-04T17:55:19.725Z,42.66
2019-04-04T17:57:49.175Z,42.94
2019-04-04T18:00:20.961Z,43.74
2019-04-04T18:02:50.911Z,43.72
2019-04-04T18:05:20.619Z,44.10
2019-04-04T18:07:50.174Z,44.21
2019-04-04T18:10:19.996Z,45.24
2019-04-04T18:12:49.708Z,45.10
2019-04-04T18:15:19.112Z,45.40
2019-04-04T18:17:48.622Z,45.52
2019-04-04T18:20:18.449Z,45.79
2019-04-04T18:22:48.020Z,46.04
2019-04-04T18:25:17.738Z,46.04
2019-04-04T18:27:47.483Z,46.42
2019-04-04T18:30:18.003Z,47.20
2019-04-04T18:32:47.581Z,47.26
2019-04-04T18:35:17.614Z,47.13
2019-04-04T18:37:48.237Z,47.26
2019-04-04T18:40:18.320Z,47.80
2019-04-04T18:42:53.532Z,48.20
2019-04-04T18:45:20.646Z,48.34
2019-04-04T18:47:50.179Z,48.44
2019-04-04T18:50:19.743Z,48.68
2019-04-04T18:52:49.485Z,49.05
2019-04-04T18:55:20.371Z,49.07
2019-04-04T18:57:50.064Z,49.50
2019-04-04T19:00:22.227Z,49.73
2019-04-04T19:02:52.219Z,50.07
2019-04-04T19:05:22.071Z,50.58
2019-04-04T19:07:51.615Z,51.00
2019-04-04T19:10:21.029Z,51.23
2019-04-04T19:12:50.514Z,51.05
2019-04-04T19:15:21.594Z,51.19
2019-04-04T19:17:51.203Z,51.27
2019-04-04T19:20:22.068Z,51.65
2019-04-04T19:22:51.555Z,52.00
2019-04-04T19:25:21.588Z,52.08
2019-04-04T19:27:51.123Z,52.08
2019-04-04T19:30:21.008Z,52.25
2019-04-04T19:32:50.395Z,52.51
2019-04-04T19:35:19.951Z,52.43
2019-04-04T19:37:59.575Z,52.67
2019-04-04T19:40:22.780Z,52.75
2019-04-04T19:42:52.447Z,52.83
2019-04-04T19:45:22.261Z,52.73
2019-04-04T19:47:53.241Z,52.67
2019-04-04T19:50:23.027Z,53.09
2019-04-04T19:52:52.715Z,53.63
2019-04-04T19:55:22.438Z,53.86
2019-04-04T19:57:52.583Z,54.07
2019-04-04T20:00:22.491Z,54.38
2019-04-04T20:02:52.163Z,54.26
2019-04-04T20:05:22.445Z,54.21
2019-04-04T20:07:52.270Z,54.10
2019-04-04T20:10:21.764Z,54.08
2019-04-04T20:12:51.410Z,53.78
2019-04-04T20:15:21.115Z,53.68
2019-04-04T20:17:50.797Z,53.42
2019-04-04T20:20:20.607Z,53.56
2019-04-04T20:22:49.989Z,53.72
2019-04-04T20:25:19.903Z,53.85
2019-04-04T20:27:54.992Z,54.16
2019-04-04T20:30:24.558Z,54.17
2019-04-04T20:32:54.114Z,54.68
2019-04-04T20:35:26.720Z,54.70
2019-04-04T20:37:54.915Z,54.82
2019-04-04T20:40:24.405Z,54.78
2019-04-04T20:42:53.878Z,54.75
2019-04-04T20:45:23.463Z,55.06
2019-04-04T20:47:52.950Z,55.33
2019-04-04T20:50:22.341Z,55.57
2019-04-04T20:52:52.924Z,55.77
2019-04-04T20:55:23.076Z,55.98
2019-04-04T20:57:52.456Z,56.42
2019-04-04T21:00:22.053Z,56.80
2019-04-04T21:02:51.536Z,57.08
2019-04-04T21:05:21.366Z,57.19
2019-04-04T21:07:50.755Z,57.24
2019-04-04T21:10:20.222Z,57.34
2019-04-04T21:12:49.986Z,57.60
2019-04-04T21:15:19.788Z,57.60
2019-04-04T21:17:49.250Z,57.50
2019-04-04T21:20:18.626Z,57.23
2019-04-04T21:22:48.160Z,57.28
2019-04-04T21:25:17.642Z,56.67
2019-04-04T21:27:47.068Z,56.88
2019-04-04T21:30:16.968Z,57.54
2019-04-04T21:32:46.356Z,57.47
2019-04-04T21:35:16.004Z,57.48
2019-04-04T21:37:45.490Z,58.13
2019-04-04T21:40:15.286Z,58.71
2019-04-04T21:42:44.918Z,59.37
2019-04-04T21:45:15.506Z,59.95
2019-04-04T21:47:45.554Z,60.19
2019-04-04T21:50:15.407Z,60.49
2019-04-04T21:52:45.196Z,60.49
2019-04-04T21:55:14.807Z,60.49
2019-04-04T21:57:44.724Z,60.49
2019-04-04T22:00:14.856Z,60.32
2019-04-04T22:02:44.543Z,60.45
2019-04-04T22:05:14.373Z,60.72
2019-04-04T22:07:44.079Z,61.39
2019-04-04T22:10:13.712Z,61.88
2019-04-04T22:12:43.507Z,62.18
2019-04-04T22:15:13.576Z,63.31
2019-04-04T22:17:43.114Z,63.17
2019-04-04T22:20:12.924Z,63.14
2019-04-04T22:22:42.671Z,62.91
2019-04-04T22:25:12.711Z,62.64
2019-04-04T22:27:42.232Z,62.63
2019-04-04T22:30:13.277Z,62.59
2019-04-04T22:32:43.119Z,62.04
2019-04-04T22:35:12.725Z,61.99
2019-04-04T22:37:42.115Z,61.99
2019-04-04T22:40:11.518Z,61.99
2019-04-04T22:42:41.005Z,62.42
2019-04-04T22:45:10.950Z,63.08
2019-04-04T22:47:40.522Z,63.41
2019-04-04T22:50:10.290Z,63.73
2019-04-04T22:52:39.972Z,63.13
2019-04-04T22:55:09.706Z,63.34
2019-04-04T22:57:39.388Z,63.32
2019-04-04T23:00:10.701Z,63.02
2019-04-04T23:02:40.462Z,63.62
2019-04-04T23:05:10.436Z,64.00
2019-04-04T23:07:39.839Z,64.31
2019-04-04T23:10:09.867Z,64.47
2019-04-04T23:12:39.691Z,64.34
2019-04-04T23:15:09.918Z,64.31
2019-04-04T23:17:39.408Z,64.38
2019-04-04T23:20:09.421Z,64.53
2019-04-04T23:22:47.005Z,64.26
2019-04-04T23:25:10.493Z,63.98
2019-04-04T23:27:40.168Z,64.16
2019-04-04T23:30:10.317Z,64.33
2019-04-04T23:32:39.700Z,64.53
2019-04-04T23:35:09.093Z,64.97
2019-04-04T23:37:39.036Z,65.00
2019-04-04T23:40:08.997Z,64.74
2019-04-04T23:42:38.586Z,64.99
2019-04-04T23:45:08.548Z,64.88
2019-04-04T23:47:43.192Z,65.52
2019-04-04T23:50:09.797Z,65.38
2019-04-04T23:52:39.460Z,65.05
2019-04-04T23:55:09.119Z,65.42
2019-04-04T23:57:38.777Z,65.57
